sensor_id;sensor_type;location;lat;lon;timestamp;temperature;humidity
49132;DHT22;35149;51.196;6.204;2023-04-02T00:01:04;11.30;78.60
49132;DHT22;35149;51.196;6.204;2023-04-02T00:11:45;11.20;78.30
49132;DHT22;35149;51.196;6.204;2023-04-02T00:14:22;11.20;78.30
49132;DHT22;35149;51.196;6.204;2023-04-02T00:16:53;11.10;78.30
49132;DHT22;35149;51.196;6.204;2023-04-02T00:19:44;11.10;78.40
49132;DHT22;35149;51.196;6.204;2023-04-02T00:22:16;11.10;78.20
49132;DHT22;35149;51.196;6.204;2023-04-02T00:24:52;11.10;78.30
49132;DHT22;35149;51.196;6.204;2023-04-02T00:27:19;11.00;78.90
49132;DHT22;35149;51.196;6.204;2023-04-02T00:29:53;11.00;78.40
49132;DHT22;35149;51.196;6.204;2023-04-02T00:32:37;11.00;78.40
49132;DHT22;35149;51.196;6.204;2023-04-02T00:35:24;11.00;78.50
49132;DHT22;35149;51.196;6.204;2023-04-02T00:37:52;11.00;78.50
49132;DHT22;35149;51.196;6.204;2023-04-02T00:40:27;11.00;78.30
49132;DHT22;35149;51.196;6.204;2023-04-02T00:42:58;11.00;78.30
49132;DHT22;35149;51.196;6.204;2023-04-02T00:45:31;10.90;78.10
49132;DHT22;35149;51.196;6.204;2023-04-02T00:51:07;10.90;78.00
49132;DHT22;35149;51.196;6.204;2023-04-02T00:53:35;10.90;78.00
49132;DHT22;35149;51.196;6.204;2023-04-02T00:56:02;10.90;77.90
49132;DHT22;35149;51.196;6.204;2023-04-02T00:58:34;10.90;78.00
49132;DHT22;35149;51.196;6.204;2023-04-02T01:01:03;10.90;77.90
49132;DHT22;35149;51.196;6.204;2023-04-02T01:03:32;10.70;77.90
49132;DHT22;35149;51.196;6.204;2023-04-02T01:06:10;10.80;77.90
49132;DHT22;35149;51.196;6.204;2023-04-02T01:12:02;10.80;77.80
49132;DHT22;35149;51.196;6.204;2023-04-02T01:14:49;10.80;77.80
49132;DHT22;35149;51.196;6.204;2023-04-02T01:20:22;10.80;78.10
49132;DHT22;35149;51.196;6.204;2023-04-02T01:23:02;10.80;78.20
49132;DHT22;35149;51.196;6.204;2023-04-02T01:25:42;10.80;78.10
49132;DHT22;35149;51.196;6.204;2023-04-02T01:30:38;10.80;77.70
49132;DHT22;35149;51.196;6.204;2023-04-02T01:33:17;10.80;77.40
49132;DHT22;35149;51.196;6.204;2023-04-02T01:35:56;10.80;77.20
49132;DHT22;35149;51.196;6.204;2023-04-02T01:38:30;10.70;77.10
49132;DHT22;35149;51.196;6.204;2023-04-02T01:41:12;10.70;77.00
49132;DHT22;35149;51.196;6.204;2023-04-02T01:43:49;10.70;77.30
49132;DHT22;35149;51.196;6.204;2023-04-02T01:46:28;10.60;77.40
49132;DHT22;35149;51.196;6.204;2023-04-02T01:49:00;10.60;77.60
49132;DHT22;35149;51.196;6.204;2023-04-02T01:51:34;10.50;77.50
49132;DHT22;35149;51.196;6.204;2023-04-02T01:54:08;10.50;77.50
49132;DHT22;35149;51.196;6.204;2023-04-02T01:56:38;10.50;77.50
49132;DHT22;35149;51.196;6.204;2023-04-02T01:59:14;10.50;77.50
49132;DHT22;35149;51.196;6.204;2023-04-02T02:01:57;10.50;77.50
49132;DHT22;35149;51.196;6.204;2023-04-02T02:04:29;10.50;77.60
49132;DHT22;35149;51.196;6.204;2023-04-02T02:06:58;10.40;77.60
49132;DHT22;35149;51.196;6.204;2023-04-02T02:09:34;10.40;77.70
49132;DHT22;35149;51.196;6.204;2023-04-02T02:12:03;10.40;77.80
49132;DHT22;35149;51.196;6.204;2023-04-02T02:14:32;10.40;77.80
49132;DHT22;35149;51.196;6.204;2023-04-02T02:17:04;10.40;77.80
49132;DHT22;35149;51.196;6.204;2023-04-02T02:19:45;10.50;77.70
49132;DHT22;35149;51.196;6.204;2023-04-02T02:22:32;10.40;77.60
49132;DHT22;35149;51.196;6.204;2023-04-02T02:25:13;10.40;77.50
49132;DHT22;35149;51.196;6.204;2023-04-02T02:28:08;10.50;77.30
49132;DHT22;35149;51.196;6.204;2023-04-02T02:31:01;10.50;77.30
49132;DHT22;35149;51.196;6.204;2023-04-02T02:33:40;10.40;77.10
49132;DHT22;35149;51.196;6.204;2023-04-02T02:36:30;10.40;77.20
49132;DHT22;35149;51.196;6.204;2023-04-02T02:39:32;10.50;77.10
49132;DHT22;35149;51.196;6.204;2023-04-02T02:42:48;10.50;77.10
49132;DHT22;35149;51.196;6.204;2023-04-02T02:44:54;10.50;76.70
49132;DHT22;35149;51.196;6.204;2023-04-02T02:47:27;10.40;76.50
49132;DHT22;35149;51.196;6.204;2023-04-02T02:50:12;10.40;76.50
49132;DHT22;35149;51.196;6.204;2023-04-02T02:52:45;10.40;76.40
49132;DHT22;35149;51.196;6.204;2023-04-02T02:55:25;10.40;76.40
49132;DHT22;35149;51.196;6.204;2023-04-02T02:58:18;10.40;76.50
49132;DHT22;35149;51.196;6.204;2023-04-02T03:01:14;10.40;76.80
49132;DHT22;35149;51.196;6.204;2023-04-02T03:03:45;10.40;76.80
49132;DHT22;35149;51.196;6.204;2023-04-02T03:06:15;10.40;76.60
49132;DHT22;35149;51.196;6.204;2023-04-02T03:11:48;10.40;76.60
49132;DHT22;35149;51.196;6.204;2023-04-02T03:14:34;10.50;76.50
49132;DHT22;35149;51.196;6.204;2023-04-02T03:17:28;10.40;76.40
49132;DHT22;35149;51.196;6.204;2023-04-02T03:20:23;10.40;76.00
49132;DHT22;35149;51.196;6.204;2023-04-02T03:23:06;10.40;75.90
49132;DHT22;35149;51.196;6.204;2023-04-02T03:25:55;10.40;75.70
49132;DHT22;35149;51.196;6.204;2023-04-02T03:28:33;10.40;75.60
49132;DHT22;35149;51.196;6.204;2023-04-02T03:31:17;10.30;75.50
49132;DHT22;35149;51.196;6.204;2023-04-02T03:34:10;10.40;75.40
49132;DHT22;35149;51.196;6.204;2023-04-02T03:36:51;10.30;75.60
49132;DHT22;35149;51.196;6.204;2023-04-02T03:39:42;10.30;75.70
49132;DHT22;35149;51.196;6.204;2023-04-02T03:44:59;10.20;75.70
49132;DHT22;35149;51.196;6.204;2023-04-02T03:47:41;10.30;75.80
49132;DHT22;35149;51.196;6.204;2023-04-02T03:53:11;10.30;75.70
49132;DHT22;35149;51.196;6.204;2023-04-02T03:55:44;10.20;75.70
49132;DHT22;35149;51.196;6.204;2023-04-02T03:58:20;10.20;75.80
49132;DHT22;35149;51.196;6.204;2023-04-02T04:01:10;10.20;75.80
49132;DHT22;35149;51.196;6.204;2023-04-02T04:04:12;10.10;75.50
49132;DHT22;35149;51.196;6.204;2023-04-02T04:06:41;10.20;75.20
49132;DHT22;35149;51.196;6.204;2023-04-02T04:09:15;10.10;75.20
49132;DHT22;35149;51.196;6.204;2023-04-02T04:11:50;10.10;75.20
49132;DHT22;35149;51.196;6.204;2023-04-02T04:22:22;10.00;74.90
49132;DHT22;35149;51.196;6.204;2023-04-02T04:25:28;10.00;74.90
49132;DHT22;35149;51.196;6.204;2023-04-02T04:28:28;10.00;74.50
49132;DHT22;35149;51.196;6.204;2023-04-02T04:31:02;10.00;74.60
49132;DHT22;35149;51.196;6.204;2023-04-02T04:33:44;9.90;74.70
49132;DHT22;35149;51.196;6.204;2023-04-02T04:36:29;9.90;74.70
49132;DHT22;35149;51.196;6.204;2023-04-02T04:39:12;9.90;74.90
49132;DHT22;35149;51.196;6.204;2023-04-02T04:41:45;9.90;74.90
49132;DHT22;35149;51.196;6.204;2023-04-02T04:47:25;9.90;75.20
49132;DHT22;35149;51.196;6.204;2023-04-02T04:50:03;9.90;75.50
49132;DHT22;35149;51.196;6.204;2023-04-02T04:52:38;9.90;75.50
49132;DHT22;35149;51.196;6.204;2023-04-02T05:04:02;9.90;74.60
49132;DHT22;35149;51.196;6.204;2023-04-02T05:06:52;9.90;74.70
49132;DHT22;35149;51.196;6.204;2023-04-02T05:12:09;9.80;75.00
49132;DHT22;35149;51.196;6.204;2023-04-02T05:14:59;9.70;74.90
49132;DHT22;35149;51.196;6.204;2023-04-02T05:17:47;9.70;74.90
49132;DHT22;35149;51.196;6.204;2023-04-02T05:20:24;9.70;74.90
49132;DHT22;35149;51.196;6.204;2023-04-02T05:23:04;9.60;74.90
49132;DHT22;35149;51.196;6.204;2023-04-02T05:28:43;9.60;74.90
49132;DHT22;35149;51.196;6.204;2023-04-02T05:31:17;9.60;74.80
49132;DHT22;35149;51.196;6.204;2023-04-02T05:33:48;9.60;74.90
49132;DHT22;35149;51.196;6.204;2023-04-02T05:36:22;9.50;74.70
49132;DHT22;35149;51.196;6.204;2023-04-02T05:38:56;9.50;74.70
49132;DHT22;35149;51.196;6.204;2023-04-02T05:41:44;9.40;75.10
49132;DHT22;35149;51.196;6.204;2023-04-02T05:44:37;9.40;75.00
49132;DHT22;35149;51.196;6.204;2023-04-02T05:47:28;9.40;74.60
49132;DHT22;35149;51.196;6.204;2023-04-02T05:50:05;9.40;74.60
49132;DHT22;35149;51.196;6.204;2023-04-02T05:53:16;9.30;74.60
49132;DHT22;35149;51.196;6.204;2023-04-02T05:55:58;9.30;74.50
49132;DHT22;35149;51.196;6.204;2023-04-02T06:01:56;9.30;74.20
49132;DHT22;35149;51.196;6.204;2023-04-02T06:04:38;9.30;74.50
49132;DHT22;35149;51.196;6.204;2023-04-02T06:10:21;9.20;74.70
49132;DHT22;35149;51.196;6.204;2023-04-02T06:15:34;9.20;74.70
49132;DHT22;35149;51.196;6.204;2023-04-02T06:18:22;9.20;74.70
49132;DHT22;35149;51.196;6.204;2023-04-02T06:20:55;9.20;74.20
49132;DHT22;35149;51.196;6.204;2023-04-02T06:26:38;9.20;74.40
49132;DHT22;35149;51.196;6.204;2023-04-02T06:29:25;9.20;74.40
49132;DHT22;35149;51.196;6.204;2023-04-02T06:32:00;9.20;74.70
49132;DHT22;35149;51.196;6.204;2023-04-02T06:34:29;9.20;74.40
49132;DHT22;35149;51.196;6.204;2023-04-02T06:37:01;9.20;74.30
49132;DHT22;35149;51.196;6.204;2023-04-02T06:39:31;9.20;74.30
49132;DHT22;35149;51.196;6.204;2023-04-02T06:42:16;9.20;74.40
49132;DHT22;35149;51.196;6.204;2023-04-02T06:45:15;9.20;74.40
49132;DHT22;35149;51.196;6.204;2023-04-02T06:47:54;9.20;74.50
49132;DHT22;35149;51.196;6.204;2023-04-02T06:53:28;9.20;74.30
49132;DHT22;35149;51.196;6.204;2023-04-02T06:56:21;9.20;74.30
49132;DHT22;35149;51.196;6.204;2023-04-02T06:58:49;9.20;74.20
49132;DHT22;35149;51.196;6.204;2023-04-02T07:01:24;9.20;74.10
49132;DHT22;35149;51.196;6.204;2023-04-02T07:03:52;9.20;73.70
49132;DHT22;35149;51.196;6.204;2023-04-02T07:06:42;9.20;73.40
49132;DHT22;35149;51.196;6.204;2023-04-02T07:09:11;9.20;73.00
49132;DHT22;35149;51.196;6.204;2023-04-02T07:11:41;9.20;72.70
49132;DHT22;35149;51.196;6.204;2023-04-02T07:14:12;9.10;72.70
49132;DHT22;35149;51.196;6.204;2023-04-02T07:16:41;9.10;72.50
49132;DHT22;35149;51.196;6.204;2023-04-02T07:19:17;9.10;72.60
49132;DHT22;35149;51.196;6.204;2023-04-02T07:21:46;9.10;72.60
49132;DHT22;35149;51.196;6.204;2023-04-02T07:24:13;9.00;72.80
49132;DHT22;35149;51.196;6.204;2023-04-02T07:26:40;9.00;72.60
49132;DHT22;35149;51.196;6.204;2023-04-02T07:29:10;9.00;72.70
49132;DHT22;35149;51.196;6.204;2023-04-02T07:31:38;9.00;72.70
49132;DHT22;35149;51.196;6.204;2023-04-02T07:34:07;9.00;72.60
49132;DHT22;35149;51.196;6.204;2023-04-02T07:36:34;9.00;72.50
49132;DHT22;35149;51.196;6.204;2023-04-02T07:39:03;9.00;72.30
49132;DHT22;35149;51.196;6.204;2023-04-02T07:41:32;9.00;72.40
49132;DHT22;35149;51.196;6.204;2023-04-02T07:43:59;9.00;72.70
49132;DHT22;35149;51.196;6.204;2023-04-02T07:46:26;9.00;72.70
49132;DHT22;35149;51.196;6.204;2023-04-02T07:48:52;9.00;72.70
49132;DHT22;35149;51.196;6.204;2023-04-02T07:51:22;9.00;72.60
49132;DHT22;35149;51.196;6.204;2023-04-02T07:53:52;9.10;72.60
49132;DHT22;35149;51.196;6.204;2023-04-02T07:56:23;9.10;72.50
49132;DHT22;35149;51.196;6.204;2023-04-02T07:58:50;9.10;72.50
49132;DHT22;35149;51.196;6.204;2023-04-02T08:01:20;9.20;72.20
49132;DHT22;35149;51.196;6.204;2023-04-02T08:03:49;9.20;72.00
49132;DHT22;35149;51.196;6.204;2023-04-02T08:06:20;9.20;71.90
49132;DHT22;35149;51.196;6.204;2023-04-02T08:08:46;9.20;72.10
49132;DHT22;35149;51.196;6.204;2023-04-02T08:11:13;9.30;72.00
49132;DHT22;35149;51.196;6.204;2023-04-02T08:13:40;9.30;71.80
49132;DHT22;35149;51.196;6.204;2023-04-02T08:16:07;9.40;71.80
49132;DHT22;35149;51.196;6.204;2023-04-02T08:18:34;9.40;71.50
49132;DHT22;35149;51.196;6.204;2023-04-02T08:21:01;9.40;71.50
49132;DHT22;35149;51.196;6.204;2023-04-02T08:23:28;9.40;71.50
49132;DHT22;35149;51.196;6.204;2023-04-02T08:25:54;9.40;71.20
49132;DHT22;35149;51.196;6.204;2023-04-02T08:28:21;9.40;70.90
49132;DHT22;35149;51.196;6.204;2023-04-02T08:30:48;9.40;70.60
49132;DHT22;35149;51.196;6.204;2023-04-02T08:33:15;9.40;70.50
49132;DHT22;35149;51.196;6.204;2023-04-02T08:35:45;9.40;70.50
49132;DHT22;35149;51.196;6.204;2023-04-02T08:38:14;9.50;70.30
49132;DHT22;35149;51.196;6.204;2023-04-02T08:40:43;9.40;70.00
49132;DHT22;35149;51.196;6.204;2023-04-02T08:48:34;9.40;70.30
49132;DHT22;35149;51.196;6.204;2023-04-02T08:51:02;9.40;70.80
49132;DHT22;35149;51.196;6.204;2023-04-02T08:53:32;9.40;70.20
49132;DHT22;35149;51.196;6.204;2023-04-02T08:56:16;9.50;70.00
49132;DHT22;35149;51.196;6.204;2023-04-02T08:58:55;9.40;69.50
49132;DHT22;35149;51.196;6.204;2023-04-02T09:01:39;9.50;69.70
49132;DHT22;35149;51.196;6.204;2023-04-02T09:04:20;9.50;69.50
49132;DHT22;35149;51.196;6.204;2023-04-02T09:06:48;9.50;69.70
49132;DHT22;35149;51.196;6.204;2023-04-02T09:09:21;9.50;69.80
49132;DHT22;35149;51.196;6.204;2023-04-02T09:11:59;9.50;69.40
49132;DHT22;35149;51.196;6.204;2023-04-02T09:14:43;9.60;69.00
49132;DHT22;35149;51.196;6.204;2023-04-02T09:17:21;9.60;69.00
49132;DHT22;35149;51.196;6.204;2023-04-02T09:19:57;9.60;69.50
49132;DHT22;35149;51.196;6.204;2023-04-02T09:22:31;9.70;69.40
49132;DHT22;35149;51.196;6.204;2023-04-02T09:25:03;9.70;69.70
49132;DHT22;35149;51.196;6.204;2023-04-02T09:27:32;9.70;69.80
49132;DHT22;35149;51.196;6.204;2023-04-02T09:30:05;9.80;69.90
49132;DHT22;35149;51.196;6.204;2023-04-02T09:32:49;9.90;69.60
49132;DHT22;35149;51.196;6.204;2023-04-02T09:35:21;9.90;68.80
49132;DHT22;35149;51.196;6.204;2023-04-02T09:41:00;10.00;68.20
49132;DHT22;35149;51.196;6.204;2023-04-02T09:43:35;10.00;68.60
49132;DHT22;35149;51.196;6.204;2023-04-02T09:48:35;10.10;68.80
49132;DHT22;35149;51.196;6.204;2023-04-02T09:51:20;10.20;68.50
49132;DHT22;35149;51.196;6.204;2023-04-02T09:54:06;10.30;67.80
49132;DHT22;35149;51.196;6.204;2023-04-02T09:56:35;10.30;67.70
49132;DHT22;35149;51.196;6.204;2023-04-02T10:04:38;10.50;67.60
49132;DHT22;35149;51.196;6.204;2023-04-02T10:07:33;10.60;66.70
49132;DHT22;35149;51.196;6.204;2023-04-02T10:15:37;10.70;66.10
49132;DHT22;35149;51.196;6.204;2023-04-02T10:18:32;10.60;66.00
49132;DHT22;35149;51.196;6.204;2023-04-02T10:21:02;10.70;65.40
49132;DHT22;35149;51.196;6.204;2023-04-02T10:23:30;10.60;65.60
49132;DHT22;35149;51.196;6.204;2023-04-02T10:26:17;10.60;65.90
49132;DHT22;35149;51.196;6.204;2023-04-02T10:31:58;10.60;65.80
49132;DHT22;35149;51.196;6.204;2023-04-02T10:34:38;10.60;64.70
49132;DHT22;35149;51.196;6.204;2023-04-02T10:37:30;10.60;65.20
49132;DHT22;35149;51.196;6.204;2023-04-02T10:40:05;10.50;65.00
49132;DHT22;35149;51.196;6.204;2023-04-02T10:50:46;10.50;65.30
49132;DHT22;35149;51.196;6.204;2023-04-02T10:53:20;10.50;65.90
49132;DHT22;35149;51.196;6.204;2023-04-02T10:55:57;10.60;66.00
49132;DHT22;35149;51.196;6.204;2023-04-02T10:58:26;10.60;66.20
49132;DHT22;35149;51.196;6.204;2023-04-02T11:00:58;10.70;65.80
49132;DHT22;35149;51.196;6.204;2023-04-02T11:03:38;10.70;65.30
49132;DHT22;35149;51.196;6.204;2023-04-02T11:06:24;10.80;64.80
49132;DHT22;35149;51.196;6.204;2023-04-02T11:08:57;10.80;65.20
49132;DHT22;35149;51.196;6.204;2023-04-02T11:11:31;10.90;64.80
49132;DHT22;35149;51.196;6.204;2023-04-02T11:16:38;10.90;63.70
49132;DHT22;35149;51.196;6.204;2023-04-02T11:21:51;11.00;64.20
49132;DHT22;35149;51.196;6.204;2023-04-02T11:27:12;11.00;64.30
49132;DHT22;35149;51.196;6.204;2023-04-02T11:32:43;11.10;64.40
49132;DHT22;35149;51.196;6.204;2023-04-02T11:35:39;11.20;64.70
49132;DHT22;35149;51.196;6.204;2023-04-02T11:46:03;11.30;63.10
49132;DHT22;35149;51.196;6.204;2023-04-02T11:48:34;11.30;63.50
49132;DHT22;35149;51.196;6.204;2023-04-02T11:53:52;11.30;62.50
49132;DHT22;35149;51.196;6.204;2023-04-02T11:59:42;11.40;62.60
49132;DHT22;35149;51.196;6.204;2023-04-02T12:02:58;11.30;62.60
49132;DHT22;35149;51.196;6.204;2023-04-02T12:05:36;11.40;62.50
49132;DHT22;35149;51.196;6.204;2023-04-02T12:08:53;11.40;63.10
49132;DHT22;35149;51.196;6.204;2023-04-02T12:11:00;11.40;63.60
49132;DHT22;35149;51.196;6.204;2023-04-02T12:16:10;11.50;62.60
49132;DHT22;35149;51.196;6.204;2023-04-02T12:18:43;11.50;63.30
49132;DHT22;35149;51.196;6.204;2023-04-02T12:21:17;11.50;62.80
49132;DHT22;35149;51.196;6.204;2023-04-02T12:23:46;11.60;62.30
49132;DHT22;35149;51.196;6.204;2023-04-02T12:26:34;11.60;62.80
49132;DHT22;35149;51.196;6.204;2023-04-02T12:29:25;11.70;61.80
49132;DHT22;35149;51.196;6.204;2023-04-02T12:31:53;11.60;61.70
49132;DHT22;35149;51.196;6.204;2023-04-02T12:34:23;11.60;62.10
49132;DHT22;35149;51.196;6.204;2023-04-02T12:36:58;11.60;62.10
49132;DHT22;35149;51.196;6.204;2023-04-02T12:39:25;11.60;62.00
49132;DHT22;35149;51.196;6.204;2023-04-02T12:41:55;11.60;62.00
49132;DHT22;35149;51.196;6.204;2023-04-02T12:44:26;11.60;61.90
49132;DHT22;35149;51.196;6.204;2023-04-02T12:46:56;11.50;61.60
49132;DHT22;35149;51.196;6.204;2023-04-02T12:51:56;11.50;62.00
49132;DHT22;35149;51.196;6.204;2023-04-02T12:54:24;11.50;62.10
49132;DHT22;35149;51.196;6.204;2023-04-02T12:57:19;11.50;62.10
49132;DHT22;35149;51.196;6.204;2023-04-02T12:59:48;11.60;61.50
49132;DHT22;35149;51.196;6.204;2023-04-02T13:02:21;11.60;62.10
49132;DHT22;35149;51.196;6.204;2023-04-02T13:04:53;11.70;61.90
49132;DHT22;35149;51.196;6.204;2023-04-02T13:07:21;11.70;61.40
49132;DHT22;35149;51.196;6.204;2023-04-02T13:09:53;11.80;62.00
49132;DHT22;35149;51.196;6.204;2023-04-02T13:12:32;11.80;61.70
49132;DHT22;35149;51.196;6.204;2023-04-02T13:15:07;11.80;60.50
49132;DHT22;35149;51.196;6.204;2023-04-02T13:18:00;11.80;61.50
49132;DHT22;35149;51.196;6.204;2023-04-02T13:20:37;11.80;61.20
49132;DHT22;35149;51.196;6.204;2023-04-02T13:23:30;11.80;60.70
49132;DHT22;35149;51.196;6.204;2023-04-02T13:26:16;11.80;60.40
49132;DHT22;35149;51.196;6.204;2023-04-02T13:31:43;11.80;60.70
49132;DHT22;35149;51.196;6.204;2023-04-02T13:34:10;11.80;60.70
49132;DHT22;35149;51.196;6.204;2023-04-02T13:36:43;11.80;61.30
49132;DHT22;35149;51.196;6.204;2023-04-02T13:39:13;11.80;61.20
49132;DHT22;35149;51.196;6.204;2023-04-02T13:41:43;11.80;61.30
49132;DHT22;35149;51.196;6.204;2023-04-02T13:46:51;11.80;60.40
49132;DHT22;35149;51.196;6.204;2023-04-02T13:49:22;11.80;60.90
49132;DHT22;35149;51.196;6.204;2023-04-02T13:51:54;11.80;60.70
49132;DHT22;35149;51.196;6.204;2023-04-02T13:54:59;11.90;60.80
49132;DHT22;35149;51.196;6.204;2023-04-02T13:57:19;11.90;60.70
49132;DHT22;35149;51.196;6.204;2023-04-02T13:59:46;11.90;61.10
49132;DHT22;35149;51.196;6.204;2023-04-02T14:02:16;12.00;60.70
49132;DHT22;35149;51.196;6.204;2023-04-02T14:04:47;12.00;60.20
49132;DHT22;35149;51.196;6.204;2023-04-02T14:10:30;12.10;59.40
49132;DHT22;35149;51.196;6.204;2023-04-02T14:13:24;12.10;59.50
49132;DHT22;35149;51.196;6.204;2023-04-02T14:16:03;12.10;58.50
49132;DHT22;35149;51.196;6.204;2023-04-02T14:18:43;12.10;58.50
49132;DHT22;35149;51.196;6.204;2023-04-02T14:21:30;12.10;59.30
49132;DHT22;35149;51.196;6.204;2023-04-02T14:38:11;12.00;57.60
49132;DHT22;35149;51.196;6.204;2023-04-02T14:40:41;12.00;58.50
49132;DHT22;35149;51.196;6.204;2023-04-02T14:43:29;12.00;58.10
49132;DHT22;35149;51.196;6.204;2023-04-02T14:46:03;12.00;58.00
49132;DHT22;35149;51.196;6.204;2023-04-02T14:48:47;12.00;58.70
49132;DHT22;35149;51.196;6.204;2023-04-02T14:51:29;12.00;58.50
49132;DHT22;35149;51.196;6.204;2023-04-02T14:54:27;11.90;58.90
49132;DHT22;35149;51.196;6.204;2023-04-02T14:57:06;12.00;58.30
49132;DHT22;35149;51.196;6.204;2023-04-02T14:59:45;12.00;58.50
49132;DHT22;35149;51.196;6.204;2023-04-02T15:02:42;12.00;58.30
49132;DHT22;35149;51.196;6.204;2023-04-02T15:05:23;12.10;58.00
49132;DHT22;35149;51.196;6.204;2023-04-02T15:07:57;12.10;58.00
49132;DHT22;35149;51.196;6.204;2023-04-02T15:10:32;12.10;58.40
49132;DHT22;35149;51.196;6.204;2023-04-02T15:13:05;12.20;58.00
49132;DHT22;35149;51.196;6.204;2023-04-02T15:18:15;12.60;60.20
49132;DHT22;35149;51.196;6.204;2023-04-02T15:20:56;13.20;62.50
49132;DHT22;35149;51.196;6.204;2023-04-02T15:26:48;15.60;60.90
49132;DHT22;35149;51.196;6.204;2023-04-02T15:29:42;16.90;57.80
49132;DHT22;35149;51.196;6.204;2023-04-02T15:35:17;19.30;54.20
49132;DHT22;35149;51.196;6.204;2023-04-02T15:41:00;21.40;49.40
49132;DHT22;35149;51.196;6.204;2023-04-02T15:43:54;21.90;47.50
49132;DHT22;35149;51.196;6.204;2023-04-02T16:06:34;20.80;42.30
49132;DHT22;35149;51.196;6.204;2023-04-02T16:09:26;20.40;42.50
49132;DHT22;35149;51.196;6.204;2023-04-02T16:12:12;19.90;42.60
49132;DHT22;35149;51.196;6.204;2023-04-02T16:14:43;19.50;43.00
49132;DHT22;35149;51.196;6.204;2023-04-02T16:17:18;19.10;43.90
49132;DHT22;35149;51.196;6.204;2023-04-02T16:19:55;18.70;43.60
49132;DHT22;35149;51.196;6.204;2023-04-02T16:22:28;18.40;43.50
49132;DHT22;35149;51.196;6.204;2023-04-02T16:25:12;18.00;44.30
49132;DHT22;35149;51.196;6.204;2023-04-02T16:27:59;17.60;43.60
49132;DHT22;35149;51.196;6.204;2023-04-02T16:38:57;16.50;47.30
49132;DHT22;35149;51.196;6.204;2023-04-02T16:41:59;16.60;47.20
49132;DHT22;35149;51.196;6.204;2023-04-02T16:44:42;16.80;48.50
49132;DHT22;35149;51.196;6.204;2023-04-02T16:47:56;17.20;46.70
49132;DHT22;35149;51.196;6.204;2023-04-02T16:50:43;17.40;46.20
49132;DHT22;35149;51.196;6.204;2023-04-02T16:56:49;18.10;46.10
49132;DHT22;35149;51.196;6.204;2023-04-02T17:10:50;18.30;43.50
49132;DHT22;35149;51.196;6.204;2023-04-02T17:13:39;18.20;44.60
49132;DHT22;35149;51.196;6.204;2023-04-02T17:16:18;18.10;43.20
49132;DHT22;35149;51.196;6.204;2023-04-02T17:18:51;18.10;43.20
49132;DHT22;35149;51.196;6.204;2023-04-02T17:21:25;18.10;44.20
49132;DHT22;35149;51.196;6.204;2023-04-02T17:24:20;18.00;43.80
49132;DHT22;35149;51.196;6.204;2023-04-02T17:27:22;17.80;43.50
49132;DHT22;35149;51.196;6.204;2023-04-02T17:30:00;17.60;42.60
49132;DHT22;35149;51.196;6.204;2023-04-02T17:32:32;17.20;42.80
49132;DHT22;35149;51.196;6.204;2023-04-02T17:35:29;16.90;43.80
49132;DHT22;35149;51.196;6.204;2023-04-02T17:38:25;16.50;43.20
49132;DHT22;35149;51.196;6.204;2023-04-02T17:43:51;15.70;45.30
49132;DHT22;35149;51.196;6.204;2023-04-02T17:46:43;15.40;45.30
49132;DHT22;35149;51.196;6.204;2023-04-02T17:52:24;14.80;46.50
49132;DHT22;35149;51.196;6.204;2023-04-02T17:57:53;14.20;46.80
49132;DHT22;35149;51.196;6.204;2023-04-02T18:00:44;14.00;47.30
49132;DHT22;35149;51.196;6.204;2023-04-02T18:06:06;13.60;47.90
49132;DHT22;35149;51.196;6.204;2023-04-02T18:14:05;13.10;48.40
49132;DHT22;35149;51.196;6.204;2023-04-02T18:19:50;12.80;49.10
49132;DHT22;35149;51.196;6.204;2023-04-02T18:30:42;12.10;50.40
49132;DHT22;35149;51.196;6.204;2023-04-02T18:36:18;11.90;50.60
49132;DHT22;35149;51.196;6.204;2023-04-02T18:38:58;11.80;50.70
49132;DHT22;35149;51.196;6.204;2023-04-02T18:47:15;11.40;51.50
49132;DHT22;35149;51.196;6.204;2023-04-02T18:49:53;11.30;52.10
49132;DHT22;35149;51.196;6.204;2023-04-02T18:52:22;11.20;52.60
49132;DHT22;35149;51.196;6.204;2023-04-02T18:55:03;11.10;52.80
49132;DHT22;35149;51.196;6.204;2023-04-02T18:57:33;11.00;52.80
49132;DHT22;35149;51.196;6.204;2023-04-02T19:02:43;10.90;53.50
49132;DHT22;35149;51.196;6.204;2023-04-02T19:08:13;10.70;53.90
49132;DHT22;35149;51.196;6.204;2023-04-02T19:10:48;10.60;53.90
49132;DHT22;35149;51.196;6.204;2023-04-02T19:13:20;10.50;54.20
49132;DHT22;35149;51.196;6.204;2023-04-02T19:21:52;10.20;54.70
49132;DHT22;35149;51.196;6.204;2023-04-02T19:35:58;9.80;55.40
49132;DHT22;35149;51.196;6.204;2023-04-02T19:43:50;9.60;56.00
49132;DHT22;35149;51.196;6.204;2023-04-02T19:46:17;9.50;56.20
49132;DHT22;35149;51.196;6.204;2023-04-02T19:49:00;9.40;56.20
49132;DHT22;35149;51.196;6.204;2023-04-02T19:51:32;9.30;56.30
49132;DHT22;35149;51.196;6.204;2023-04-02T19:53:59;9.20;56.50
49132;DHT22;35149;51.196;6.204;2023-04-02T19:56:28;9.10;56.60
49132;DHT22;35149;51.196;6.204;2023-04-02T19:58:54;9.00;56.70
49132;DHT22;35149;51.196;6.204;2023-04-02T20:01:23;8.90;56.80
49132;DHT22;35149;51.196;6.204;2023-04-02T20:03:53;8.80;57.00
49132;DHT22;35149;51.196;6.204;2023-04-02T20:06:23;8.70;57.10
49132;DHT22;35149;51.196;6.204;2023-04-02T20:08:52;8.70;57.20
49132;DHT22;35149;51.196;6.204;2023-04-02T20:11:19;8.60;57.40
49132;DHT22;35149;51.196;6.204;2023-04-02T20:13:51;8.50;57.50
49132;DHT22;35149;51.196;6.204;2023-04-02T20:16:21;8.40;57.60
49132;DHT22;35149;51.196;6.204;2023-04-02T20:18:57;8.30;57.80
49132;DHT22;35149;51.196;6.204;2023-04-02T20:21:23;8.30;57.90
49132;DHT22;35149;51.196;6.204;2023-04-02T20:23:56;8.20;58.00
49132;DHT22;35149;51.196;6.204;2023-04-02T20:26:23;8.10;58.10
49132;DHT22;35149;51.196;6.204;2023-04-02T20:29:18;8.00;58.20
49132;DHT22;35149;51.196;6.204;2023-04-02T20:31:53;8.00;58.30
49132;DHT22;35149;51.196;6.204;2023-04-02T20:34:37;7.90;58.40
49132;DHT22;35149;51.196;6.204;2023-04-02T20:37:10;7.80;58.50
49132;DHT22;35149;51.196;6.204;2023-04-02T20:39:45;7.70;58.60
49132;DHT22;35149;51.196;6.204;2023-04-02T20:42:28;7.70;58.80
49132;DHT22;35149;51.196;6.204;2023-04-02T20:45:08;7.60;58.80
49132;DHT22;35149;51.196;6.204;2023-04-02T20:47:39;7.50;59.00
49132;DHT22;35149;51.196;6.204;2023-04-02T20:50:28;7.50;59.10
49132;DHT22;35149;51.196;6.204;2023-04-02T20:53:04;7.40;59.30
49132;DHT22;35149;51.196;6.204;2023-04-02T20:55:33;7.30;59.20
49132;DHT22;35149;51.196;6.204;2023-04-02T20:58:08;7.30;59.40
49132;DHT22;35149;51.196;6.204;2023-04-02T21:00:44;7.20;59.40
49132;DHT22;35149;51.196;6.204;2023-04-02T21:03:28;7.20;59.60
49132;DHT22;35149;51.196;6.204;2023-04-02T21:05:55;7.10;59.60
49132;DHT22;35149;51.196;6.204;2023-04-02T21:08:31;7.10;59.70
49132;DHT22;35149;51.196;6.204;2023-04-02T21:11:35;7.00;59.80
49132;DHT22;35149;51.196;6.204;2023-04-02T21:14:25;7.00;60.00
49132;DHT22;35149;51.196;6.204;2023-04-02T21:17:06;7.00;60.10